sensor_id;sensor_type;location;lat;lon;timestamp;temperature;humidity
1129;DHT22;553;51.038;7.216;2024-01-30T00:02:25;8.70;99.90
1129;DHT22;553;51.038;7.216;2024-01-30T00:04:52;8.70;99.90
1129;DHT22;553;51.038;7.216;2024-01-30T00:07:19;8.60;99.90
1129;DHT22;553;51.038;7.216;2024-01-30T00:09:47;8.60;99.90
1129;DHT22;553;51.038;7.216;2024-01-30T00:12:14;8.60;99.90
1129;DHT22;553;51.038;7.216;2024-01-30T00:14:42;8.60;99.90
1129;DHT22;553;51.038;7.216;2024-01-30T00:17:10;8.60;99.90
1129;DHT22;553;51.038;7.216;2024-01-30T00:19:36;8.60;99.90
1129;DHT22;553;51.038;7.216;2024-01-30T00:22:03;8.50;99.90
1129;DHT22;553;51.038;7.216;2024-01-30T00:24:30;8.50;99.90
1129;DHT22;553;51.038;7.216;2024-01-30T00:26:57;8.50;99.90
1129;DHT22;553;51.038;7.216;2024-01-30T00:29:24;8.50;99.90
1129;DHT22;553;51.038;7.216;2024-01-30T00:31:52;8.50;99.90
1129;DHT22;553;51.038;7.216;2024-01-30T00:34:19;8.50;99.90
1129;DHT22;553;51.038;7.216;2024-01-30T00:36:46;8.50;99.90
1129;DHT22;553;51.038;7.216;2024-01-30T00:39:13;8.50;99.90
1129;DHT22;553;51.038;7.216;2024-01-30T00:41:42;8.40;99.90
1129;DHT22;553;51.038;7.216;2024-01-30T00:44:08;8.40;99.90
1129;DHT22;553;51.038;7.216;2024-01-30T00:46:35;8.40;99.90
1129;DHT22;553;51.038;7.216;2024-01-30T00:49:02;8.40;99.90
1129;DHT22;553;51.038;7.216;2024-01-30T00:51:29;8.30;99.90
1129;DHT22;553;51.038;7.216;2024-01-30T00:53:56;8.20;99.90
1129;DHT22;553;51.038;7.216;2024-01-30T00:56:23;8.20;99.90
1129;DHT22;553;51.038;7.216;2024-01-30T00:58:50;8.20;99.90
1129;DHT22;553;51.038;7.216;2024-01-30T01:01:17;8.20;99.90
1129;DHT22;553;51.038;7.216;2024-01-30T01:03:44;8.20;99.90
1129;DHT22;553;51.038;7.216;2024-01-30T01:06:11;8.20;99.90
1129;DHT22;553;51.038;7.216;2024-01-30T01:08:38;8.10;99.90
1129;DHT22;553;51.038;7.216;2024-01-30T01:11:05;8.10;99.90
1129;DHT22;553;51.038;7.216;2024-01-30T01:13:32;8.00;99.90
1129;DHT22;553;51.038;7.216;2024-01-30T01:15:58;8.00;99.90
1129;DHT22;553;51.038;7.216;2024-01-30T01:18:25;7.90;99.90
1129;DHT22;553;51.038;7.216;2024-01-30T01:20:52;7.90;99.90
1129;DHT22;553;51.038;7.216;2024-01-30T01:23:19;7.90;99.90
1129;DHT22;553;51.038;7.216;2024-01-30T01:25:45;7.90;99.90
1129;DHT22;553;51.038;7.216;2024-01-30T01:28:12;7.90;99.90
1129;DHT22;553;51.038;7.216;2024-01-30T01:30:39;7.80;99.90
1129;DHT22;553;51.038;7.216;2024-01-30T01:33:06;7.80;99.90
1129;DHT22;553;51.038;7.216;2024-01-30T01:35:33;7.80;99.90
1129;DHT22;553;51.038;7.216;2024-01-30T01:38:00;7.80;99.90
1129;DHT22;553;51.038;7.216;2024-01-30T01:40:28;7.80;99.90
1129;DHT22;553;51.038;7.216;2024-01-30T01:42:55;7.80;99.90
1129;DHT22;553;51.038;7.216;2024-01-30T01:45:22;7.80;99.90
1129;DHT22;553;51.038;7.216;2024-01-30T01:47:52;7.80;99.90
1129;DHT22;553;51.038;7.216;2024-01-30T01:50:21;7.90;99.90
1129;DHT22;553;51.038;7.216;2024-01-30T01:52:50;7.90;99.90
1129;DHT22;553;51.038;7.216;2024-01-30T01:55:17;7.90;99.90
1129;DHT22;553;51.038;7.216;2024-01-30T01:57:48;7.90;99.90
1129;DHT22;553;51.038;7.216;2024-01-30T02:00:15;7.90;99.90
1129;DHT22;553;51.038;7.216;2024-01-30T02:02:43;7.90;99.90
1129;DHT22;553;51.038;7.216;2024-01-30T02:05:12;7.80;99.90
1129;DHT22;553;51.038;7.216;2024-01-30T02:07:38;7.90;99.90
1129;DHT22;553;51.038;7.216;2024-01-30T02:10:08;8.00;99.90
1129;DHT22;553;51.038;7.216;2024-01-30T02:12:35;8.00;99.90
1129;DHT22;553;51.038;7.216;2024-01-30T02:15:02;8.00;99.90
1129;DHT22;553;51.038;7.216;2024-01-30T02:17:29;8.00;99.90
1129;DHT22;553;51.038;7.216;2024-01-30T02:19:56;8.00;99.90
1129;DHT22;553;51.038;7.216;2024-01-30T02:22:23;7.90;99.90
1129;DHT22;553;51.038;7.216;2024-01-30T02:24:50;7.90;99.90
1129;DHT22;553;51.038;7.216;2024-01-30T02:27:17;7.90;99.90
1129;DHT22;553;51.038;7.216;2024-01-30T02:29:44;7.90;99.90
1129;DHT22;553;51.038;7.216;2024-01-30T02:32:10;7.90;99.90
1129;DHT22;553;51.038;7.216;2024-01-30T02:34:37;8.00;99.90
1129;DHT22;553;51.038;7.216;2024-01-30T02:37:04;7.90;99.90
1129;DHT22;553;51.038;7.216;2024-01-30T02:39:31;7.90;99.90
1129;DHT22;553;51.038;7.216;2024-01-30T02:41:57;8.00;99.90
1129;DHT22;553;51.038;7.216;2024-01-30T02:44:24;8.00;99.90
1129;DHT22;553;51.038;7.216;2024-01-30T02:46:51;7.90;99.90
1129;DHT22;553;51.038;7.216;2024-01-30T02:49:18;8.00;99.90
1129;DHT22;553;51.038;7.216;2024-01-30T02:51:44;8.00;99.90
1129;DHT22;553;51.038;7.216;2024-01-30T02:54:11;8.00;99.90
1129;DHT22;553;51.038;7.216;2024-01-30T02:56:39;8.00;99.90
1129;DHT22;553;51.038;7.216;2024-01-30T02:59:06;8.00;99.90
1129;DHT22;553;51.038;7.216;2024-01-30T03:01:32;8.00;99.90
1129;DHT22;553;51.038;7.216;2024-01-30T03:03:59;8.00;99.90
1129;DHT22;553;51.038;7.216;2024-01-30T03:06:26;8.00;99.90
1129;DHT22;553;51.038;7.216;2024-01-30T03:08:53;8.00;99.90
1129;DHT22;553;51.038;7.216;2024-01-30T03:11:20;8.00;99.90
1129;DHT22;553;51.038;7.216;2024-01-30T03:13:46;8.00;99.90
1129;DHT22;553;51.038;7.216;2024-01-30T03:16:13;7.90;99.90
1129;DHT22;553;51.038;7.216;2024-01-30T03:18:40;8.00;99.90
1129;DHT22;553;51.038;7.216;2024-01-30T03:21:07;8.00;99.90
1129;DHT22;553;51.038;7.216;2024-01-30T03:23:33;8.10;99.90
1129;DHT22;553;51.038;7.216;2024-01-30T03:26:00;8.10;99.90
1129;DHT22;553;51.038;7.216;2024-01-30T03:28:28;8.10;99.90
1129;DHT22;553;51.038;7.216;2024-01-30T03:30:54;8.10;99.90
1129;DHT22;553;51.038;7.216;2024-01-30T03:33:21;8.10;99.90
1129;DHT22;553;51.038;7.216;2024-01-30T03:35:48;8.00;99.90
1129;DHT22;553;51.038;7.216;2024-01-30T03:38:14;8.10;99.90
1129;DHT22;553;51.038;7.216;2024-01-30T03:40:41;8.00;99.90
1129;DHT22;553;51.038;7.216;2024-01-30T03:43:08;8.00;99.90
1129;DHT22;553;51.038;7.216;2024-01-30T03:45:35;8.00;99.90
1129;DHT22;553;51.038;7.216;2024-01-30T03:48:01;8.00;99.90
1129;DHT22;553;51.038;7.216;2024-01-30T03:50:28;8.00;99.90
1129;DHT22;553;51.038;7.216;2024-01-30T03:52:55;8.00;99.90
1129;DHT22;553;51.038;7.216;2024-01-30T03:55:22;8.00;99.90
1129;DHT22;553;51.038;7.216;2024-01-30T03:57:48;8.00;99.90
1129;DHT22;553;51.038;7.216;2024-01-30T04:00:15;8.00;99.90
1129;DHT22;553;51.038;7.216;2024-01-30T04:02:42;8.10;99.90
1129;DHT22;553;51.038;7.216;2024-01-30T04:05:09;8.00;99.90
1129;DHT22;553;51.038;7.216;2024-01-30T04:07:36;8.00;99.90
1129;DHT22;553;51.038;7.216;2024-01-30T04:10:03;8.00;99.90
1129;DHT22;553;51.038;7.216;2024-01-30T04:12:32;8.10;99.90
1129;DHT22;553;51.038;7.216;2024-01-30T04:14:59;8.10;99.90
1129;DHT22;553;51.038;7.216;2024-01-30T04:17:25;8.00;99.90
1129;DHT22;553;51.038;7.216;2024-01-30T04:19:52;8.00;99.90
1129;DHT22;553;51.038;7.216;2024-01-30T04:22:19;8.00;99.90
1129;DHT22;553;51.038;7.216;2024-01-30T04:24:46;8.00;99.90
1129;DHT22;553;51.038;7.216;2024-01-30T04:27:13;8.00;99.90
1129;DHT22;553;51.038;7.216;2024-01-30T04:29:40;8.00;99.90
1129;DHT22;553;51.038;7.216;2024-01-30T04:32:07;8.00;99.90
1129;DHT22;553;51.038;7.216;2024-01-30T04:34:34;8.00;99.90
1129;DHT22;553;51.038;7.216;2024-01-30T04:37:01;8.10;99.90
1129;DHT22;553;51.038;7.216;2024-01-30T04:39:27;8.10;99.90
1129;DHT22;553;51.038;7.216;2024-01-30T04:41:54;8.10;99.90
1129;DHT22;553;51.038;7.216;2024-01-30T04:44:22;8.10;99.90
1129;DHT22;553;51.038;7.216;2024-01-30T04:46:48;8.10;99.90
1129;DHT22;553;51.038;7.216;2024-01-30T04:49:15;8.10;99.90
1129;DHT22;553;51.038;7.216;2024-01-30T04:51:42;8.10;99.90
1129;DHT22;553;51.038;7.216;2024-01-30T04:54:08;8.10;99.90
1129;DHT22;553;51.038;7.216;2024-01-30T04:56:35;8.10;99.90
1129;DHT22;553;51.038;7.216;2024-01-30T04:59:03;8.20;99.90
1129;DHT22;553;51.038;7.216;2024-01-30T05:01:30;8.20;99.90
1129;DHT22;553;51.038;7.216;2024-01-30T05:03:57;8.20;99.90
1129;DHT22;553;51.038;7.216;2024-01-30T05:06:25;8.10;99.90
1129;DHT22;553;51.038;7.216;2024-01-30T05:08:52;8.10;99.90
1129;DHT22;553;51.038;7.216;2024-01-30T05:11:19;8.00;99.90
1129;DHT22;553;51.038;7.216;2024-01-30T05:13:46;8.00;99.90
1129;DHT22;553;51.038;7.216;2024-01-30T05:16:13;8.00;99.90
1129;DHT22;553;51.038;7.216;2024-01-30T05:18:39;7.90;99.90
1129;DHT22;553;51.038;7.216;2024-01-30T05:21:07;7.90;99.90
1129;DHT22;553;51.038;7.216;2024-01-30T05:23:34;7.80;99.90
1129;DHT22;553;51.038;7.216;2024-01-30T05:26:00;7.80;99.90
1129;DHT22;553;51.038;7.216;2024-01-30T05:28:29;7.70;99.90
1129;DHT22;553;51.038;7.216;2024-01-30T05:30:56;7.80;99.90
1129;DHT22;553;51.038;7.216;2024-01-30T05:33:23;7.80;99.90
1129;DHT22;553;51.038;7.216;2024-01-30T05:35:50;7.80;99.90
1129;DHT22;553;51.038;7.216;2024-01-30T05:38:20;7.80;99.90
1129;DHT22;553;51.038;7.216;2024-01-30T05:40:47;7.80;99.90
1129;DHT22;553;51.038;7.216;2024-01-30T05:43:14;7.80;99.90
1129;DHT22;553;51.038;7.216;2024-01-30T05:45:41;7.90;99.90
1129;DHT22;553;51.038;7.216;2024-01-30T05:48:08;7.90;99.90
1129;DHT22;553;51.038;7.216;2024-01-30T05:50:34;8.00;99.90
1129;DHT22;553;51.038;7.216;2024-01-30T05:53:01;7.90;99.90
1129;DHT22;553;51.038;7.216;2024-01-30T05:55:28;7.80;99.90
1129;DHT22;553;51.038;7.216;2024-01-30T05:57:55;7.80;99.90
1129;DHT22;553;51.038;7.216;2024-01-30T06:00:22;7.80;99.90
1129;DHT22;553;51.038;7.216;2024-01-30T06:02:49;7.80;99.90
1129;DHT22;553;51.038;7.216;2024-01-30T06:05:15;7.80;99.90
1129;DHT22;553;51.038;7.216;2024-01-30T06:07:42;7.80;99.90
1129;DHT22;553;51.038;7.216;2024-01-30T06:10:10;7.80;99.90
1129;DHT22;553;51.038;7.216;2024-01-30T06:12:37;7.90;99.90
1129;DHT22;553;51.038;7.216;2024-01-30T06:15:04;7.80;99.90
1129;DHT22;553;51.038;7.216;2024-01-30T06:17:31;7.80;99.90
1129;DHT22;553;51.038;7.216;2024-01-30T06:19:58;7.80;99.90
1129;DHT22;553;51.038;7.216;2024-01-30T06:22:25;7.70;99.90
1129;DHT22;553;51.038;7.216;2024-01-30T06:24:52;7.80;99.90
1129;DHT22;553;51.038;7.216;2024-01-30T06:27:19;7.80;99.90
1129;DHT22;553;51.038;7.216;2024-01-30T06:29:46;7.70;99.90
1129;DHT22;553;51.038;7.216;2024-01-30T06:32:12;7.70;99.90
1129;DHT22;553;51.038;7.216;2024-01-30T06:34:40;7.70;99.90
1129;DHT22;553;51.038;7.216;2024-01-30T06:37:07;7.70;99.90
1129;DHT22;553;51.038;7.216;2024-01-30T06:39:34;7.70;99.90
1129;DHT22;553;51.038;7.216;2024-01-30T06:42:01;7.70;99.90
1129;DHT22;553;51.038;7.216;2024-01-30T06:44:28;7.70;99.90
1129;DHT22;553;51.038;7.216;2024-01-30T06:46:58;7.70;99.90
1129;DHT22;553;51.038;7.216;2024-01-30T06:49:25;7.70;99.90
1129;DHT22;553;51.038;7.216;2024-01-30T06:51:52;7.60;99.90
1129;DHT22;553;51.038;7.216;2024-01-30T06:54:19;7.60;99.90
1129;DHT22;553;51.038;7.216;2024-01-30T06:56:45;7.60;99.90
1129;DHT22;553;51.038;7.216;2024-01-30T06:59:13;7.70;99.90
1129;DHT22;553;51.038;7.216;2024-01-30T07:01:39;7.60;99.90
1129;DHT22;553;51.038;7.216;2024-01-30T07:04:06;7.60;99.90
1129;DHT22;553;51.038;7.216;2024-01-30T07:06:33;7.70;99.90
1129;DHT22;553;51.038;7.216;2024-01-30T07:09:00;7.70;99.90
1129;DHT22;553;51.038;7.216;2024-01-30T07:11:27;7.70;99.90
1129;DHT22;553;51.038;7.216;2024-01-30T07:13:55;7.80;99.90
1129;DHT22;553;51.038;7.216;2024-01-30T07:16:22;7.80;99.90
1129;DHT22;553;51.038;7.216;2024-01-30T07:18:49;7.90;99.90
1129;DHT22;553;51.038;7.216;2024-01-30T07:21:16;7.90;99.90
1129;DHT22;553;51.038;7.216;2024-01-30T07:23:43;8.00;99.90
1129;DHT22;553;51.038;7.216;2024-01-30T07:26:11;8.00;99.90
1129;DHT22;553;51.038;7.216;2024-01-30T07:28:37;8.00;99.90
1129;DHT22;553;51.038;7.216;2024-01-30T07:31:04;8.10;99.90
1129;DHT22;553;51.038;7.216;2024-01-30T07:33:33;8.10;99.90
1129;DHT22;553;51.038;7.216;2024-01-30T07:35:59;8.10;99.90
1129;DHT22;553;51.038;7.216;2024-01-30T07:38:26;8.10;99.90
1129;DHT22;553;51.038;7.216;2024-01-30T07:40:53;8.10;99.90
1129;DHT22;553;51.038;7.216;2024-01-30T07:43:20;8.20;99.90
1129;DHT22;553;51.038;7.216;2024-01-30T07:45:47;8.10;99.90
1129;DHT22;553;51.038;7.216;2024-01-30T07:48:14;8.10;99.90
1129;DHT22;553;51.038;7.216;2024-01-30T07:50:41;8.10;99.90
1129;DHT22;553;51.038;7.216;2024-01-30T07:53:07;8.10;99.90
1129;DHT22;553;51.038;7.216;2024-01-30T07:55:34;8.20;99.90
1129;DHT22;553;51.038;7.216;2024-01-30T07:58:01;8.20;99.90
1129;DHT22;553;51.038;7.216;2024-01-30T08:00:28;8.20;99.90
1129;DHT22;553;51.038;7.216;2024-01-30T08:02:55;8.20;99.90
1129;DHT22;553;51.038;7.216;2024-01-30T08:05:23;8.30;99.90
1129;DHT22;553;51.038;7.216;2024-01-30T08:07:50;8.30;99.90
1129;DHT22;553;51.038;7.216;2024-01-30T08:10:17;8.30;99.90
1129;DHT22;553;51.038;7.216;2024-01-30T08:12:47;8.30;99.90
1129;DHT22;553;51.038;7.216;2024-01-30T08:15:14;8.40;99.90
1129;DHT22;553;51.038;7.216;2024-01-30T08:17:41;8.50;99.90
1129;DHT22;553;51.038;7.216;2024-01-30T08:20:08;8.50;99.90
1129;DHT22;553;51.038;7.216;2024-01-30T08:22:40;8.60;99.90
1129;DHT22;553;51.038;7.216;2024-01-30T08:25:07;8.60;99.90
1129;DHT22;553;51.038;7.216;2024-01-30T08:27:36;8.60;99.90
1129;DHT22;553;51.038;7.216;2024-01-30T08:30:06;8.60;99.90
1129;DHT22;553;51.038;7.216;2024-01-30T08:32:33;8.50;99.90
1129;DHT22;553;51.038;7.216;2024-01-30T08:35:00;8.60;99.90
1129;DHT22;553;51.038;7.216;2024-01-30T08:37:30;8.60;99.90
1129;DHT22;553;51.038;7.216;2024-01-30T08:39:57;8.60;99.90
1129;DHT22;553;51.038;7.216;2024-01-30T08:42:24;8.70;99.90
1129;DHT22;553;51.038;7.216;2024-01-30T08:44:51;8.70;99.90
1129;DHT22;553;51.038;7.216;2024-01-30T08:47:19;8.70;99.90
1129;DHT22;553;51.038;7.216;2024-01-30T08:49:46;8.70;99.90
1129;DHT22;553;51.038;7.216;2024-01-30T08:52:13;8.70;99.90
1129;DHT22;553;51.038;7.216;2024-01-30T08:54:40;8.80;99.90
1129;DHT22;553;51.038;7.216;2024-01-30T08:57:07;8.80;99.90
1129;DHT22;553;51.038;7.216;2024-01-30T08:59:34;8.90;99.90
1129;DHT22;553;51.038;7.216;2024-01-30T09:02:00;8.90;99.90
1129;DHT22;553;51.038;7.216;2024-01-30T09:04:38;8.90;99.90
1129;DHT22;553;51.038;7.216;2024-01-30T09:07:06;9.00;99.90
1129;DHT22;553;51.038;7.216;2024-01-30T09:09:40;9.00;99.90
1129;DHT22;553;51.038;7.216;2024-01-30T09:12:08;9.00;99.90
1129;DHT22;553;51.038;7.216;2024-01-30T09:14:37;9.00;99.90
1129;DHT22;553;51.038;7.216;2024-01-30T09:17:04;9.00;99.90
1129;DHT22;553;51.038;7.216;2024-01-30T09:19:31;9.10;99.90
1129;DHT22;553;51.038;7.216;2024-01-30T09:21:58;9.10;99.90
1129;DHT22;553;51.038;7.216;2024-01-30T09:24:26;9.30;99.90
1129;DHT22;553;51.038;7.216;2024-01-30T09:26:53;9.40;99.90
1129;DHT22;553;51.038;7.216;2024-01-30T09:29:20;9.50;99.90
1129;DHT22;553;51.038;7.216;2024-01-30T09:31:47;9.60;99.90
1129;DHT22;553;51.038;7.216;2024-01-30T09:34:14;9.60;99.90
1129;DHT22;553;51.038;7.216;2024-01-30T09:36:41;9.60;99.90
1129;DHT22;553;51.038;7.216;2024-01-30T09:39:07;9.70;99.90
1129;DHT22;553;51.038;7.216;2024-01-30T09:41:49;9.80;99.90
1129;DHT22;553;51.038;7.216;2024-01-30T09:44:21;9.80;99.90
1129;DHT22;553;51.038;7.216;2024-01-30T09:46:49;9.90;99.90
1129;DHT22;553;51.038;7.216;2024-01-30T09:49:17;10.00;99.90
1129;DHT22;553;51.038;7.216;2024-01-30T09:51:47;10.00;99.90
1129;DHT22;553;51.038;7.216;2024-01-30T09:54:15;10.00;99.90
1129;DHT22;553;51.038;7.216;2024-01-30T09:56:42;10.10;99.90
1129;DHT22;553;51.038;7.216;2024-01-30T09:59:09;10.20;99.90
1129;DHT22;553;51.038;7.216;2024-01-30T10:01:36;10.30;99.90
1129;DHT22;553;51.038;7.216;2024-01-30T10:04:04;10.20;99.90
1129;DHT22;553;51.038;7.216;2024-01-30T10:06:31;10.30;99.90
1129;DHT22;553;51.038;7.216;2024-01-30T10:08:58;10.30;99.90
1129;DHT22;553;51.038;7.216;2024-01-30T10:11:25;10.50;99.90
1129;DHT22;553;51.038;7.216;2024-01-30T10:13:52;10.60;99.90
1129;DHT22;553;51.038;7.216;2024-01-30T10:16:19;10.50;99.90
1129;DHT22;553;51.038;7.216;2024-01-30T10:18:45;10.50;99.90
1129;DHT22;553;51.038;7.216;2024-01-30T10:21:12;10.80;99.90
1129;DHT22;553;51.038;7.216;2024-01-30T10:23:39;11.10;99.90
1129;DHT22;553;51.038;7.216;2024-01-30T10:26:07;11.00;99.90
1129;DHT22;553;51.038;7.216;2024-01-30T10:28:34;10.90;99.90
1129;DHT22;553;51.038;7.216;2024-01-30T10:31:02;10.90;99.90
1129;DHT22;553;51.038;7.216;2024-01-30T10:33:32;10.90;99.90
1129;DHT22;553;51.038;7.216;2024-01-30T10:36:04;11.00;99.90
1129;DHT22;553;51.038;7.216;2024-01-30T10:38:32;11.10;99.90
1129;DHT22;553;51.038;7.216;2024-01-30T10:41:00;11.20;99.90
1129;DHT22;553;51.038;7.216;2024-01-30T10:43:40;11.20;99.90
1129;DHT22;553;51.038;7.216;2024-01-30T10:46:18;11.20;99.90
1129;DHT22;553;51.038;7.216;2024-01-30T10:49:01;11.20;99.90
1129;DHT22;553;51.038;7.216;2024-01-30T10:51:29;11.10;99.90
1129;DHT22;553;51.038;7.216;2024-01-30T10:53:57;11.10;99.90
1129;DHT22;553;51.038;7.216;2024-01-30T10:56:25;11.10;99.90
1129;DHT22;553;51.038;7.216;2024-01-30T10:58:53;11.20;99.90
1129;DHT22;553;51.038;7.216;2024-01-30T11:01:20;11.20;99.90
1129;DHT22;553;51.038;7.216;2024-01-30T11:03:51;11.20;99.90
1129;DHT22;553;51.038;7.216;2024-01-30T11:06:19;11.10;99.90
1129;DHT22;553;51.038;7.216;2024-01-30T11:09:05;11.10;99.90
1129;DHT22;553;51.038;7.216;2024-01-30T11:11:55;11.10;99.90
1129;DHT22;553;51.038;7.216;2024-01-30T11:14:27;11.70;99.90
1129;DHT22;553;51.038;7.216;2024-01-30T11:16:57;11.70;99.90
1129;DHT22;553;51.038;7.216;2024-01-30T11:19:26;11.50;99.90
1129;DHT22;553;51.038;7.216;2024-01-30T11:21:54;11.50;99.90
1129;DHT22;553;51.038;7.216;2024-01-30T11:24:24;11.50;99.90
1129;DHT22;553;51.038;7.216;2024-01-30T11:26:58;11.50;99.90
1129;DHT22;553;51.038;7.216;2024-01-30T11:29:29;11.40;99.90
1129;DHT22;553;51.038;7.216;2024-01-30T11:31:57;11.40;99.90
1129;DHT22;553;51.038;7.216;2024-01-30T11:34:24;11.40;99.90
1129;DHT22;553;51.038;7.216;2024-01-30T11:36:54;11.40;99.90
1129;DHT22;553;51.038;7.216;2024-01-30T11:39:25;11.40;99.90
1129;DHT22;553;51.038;7.216;2024-01-30T11:41:55;11.40;99.90
1129;DHT22;553;51.038;7.216;2024-01-30T11:44:23;11.40;99.90
1129;DHT22;553;51.038;7.216;2024-01-30T11:46:51;11.40;99.90
1129;DHT22;553;51.038;7.216;2024-01-30T11:49:18;11.50;99.90
1129;DHT22;553;51.038;7.216;2024-01-30T11:51:45;11.50;99.90
1129;DHT22;553;51.038;7.216;2024-01-30T11:54:18;11.60;99.90
1129;DHT22;553;51.038;7.216;2024-01-30T11:56:44;11.60;99.90
1129;DHT22;553;51.038;7.216;2024-01-30T11:59:12;11.70;99.90
1129;DHT22;553;51.038;7.216;2024-01-30T12:01:38;11.70;99.90
1129;DHT22;553;51.038;7.216;2024-01-30T12:04:09;11.80;99.90
1129;DHT22;553;51.038;7.216;2024-01-30T12:06:37;12.00;99.90
1129;DHT22;553;51.038;7.216;2024-01-30T12:09:05;11.90;99.90
1129;DHT22;553;51.038;7.216;2024-01-30T12:11:47;11.80;99.90
1129;DHT22;553;51.038;7.216;2024-01-30T12:14:14;11.80;99.90
1129;DHT22;553;51.038;7.216;2024-01-30T12:16:41;11.90;99.90
1129;DHT22;553;51.038;7.216;2024-01-30T12:19:08;11.90;99.90
1129;DHT22;553;51.038;7.216;2024-01-30T12:21:36;11.90;99.90
1129;DHT22;553;51.038;7.216;2024-01-30T12:24:03;11.90;99.90
1129;DHT22;553;51.038;7.216;2024-01-30T12:26:30;11.90;99.90
1129;DHT22;553;51.038;7.216;2024-01-30T12:28:57;12.00;99.90
1129;DHT22;553;51.038;7.216;2024-01-30T12:31:28;12.00;99.90
1129;DHT22;553;51.038;7.216;2024-01-30T12:33:56;12.00;99.90
1129;DHT22;553;51.038;7.216;2024-01-30T12:36:25;12.10;99.90
1129;DHT22;553;51.038;7.216;2024-01-30T12:38:52;12.10;99.90
1129;DHT22;553;51.038;7.216;2024-01-30T12:41:20;12.20;99.90
1129;DHT22;553;51.038;7.216;2024-01-30T12:43:47;12.20;99.90
1129;DHT22;553;51.038;7.216;2024-01-30T12:46:17;12.30;99.90
1129;DHT22;553;51.038;7.216;2024-01-30T12:48:43;12.40;99.90
1129;DHT22;553;51.038;7.216;2024-01-30T12:51:10;12.40;99.90
1129;DHT22;553;51.038;7.216;2024-01-30T12:53:37;12.40;99.90
1129;DHT22;553;51.038;7.216;2024-01-30T12:56:04;12.50;99.90
1129;DHT22;553;51.038;7.216;2024-01-30T12:58:31;12.50;99.90
1129;DHT22;553;51.038;7.216;2024-01-30T13:00:58;12.50;99.90
1129;DHT22;553;51.038;7.216;2024-01-30T13:03:25;12.50;99.90
1129;DHT22;553;51.038;7.216;2024-01-30T13:05:52;12.60;99.90
1129;DHT22;553;51.038;7.216;2024-01-30T13:08:19;12.60;99.90
1129;DHT22;553;51.038;7.216;2024-01-30T13:10:46;12.50;99.90
1129;DHT22;553;51.038;7.216;2024-01-30T13:13:16;12.60;99.90
1129;DHT22;553;51.038;7.216;2024-01-30T13:15:47;12.60;99.90
1129;DHT22;553;51.038;7.216;2024-01-30T13:18:14;12.60;99.90
1129;DHT22;553;51.038;7.216;2024-01-30T13:20:41;12.60;99.90
1129;DHT22;553;51.038;7.216;2024-01-30T13:23:09;12.60;99.90
1129;DHT22;553;51.038;7.216;2024-01-30T13:25:35;12.50;99.90
1129;DHT22;553;51.038;7.216;2024-01-30T13:28:02;12.60;99.90
1129;DHT22;553;51.038;7.216;2024-01-30T13:30:29;12.70;99.90
1129;DHT22;553;51.038;7.216;2024-01-30T13:32:56;12.80;99.90
1129;DHT22;553;51.038;7.216;2024-01-30T13:35:23;12.70;99.90
1129;DHT22;553;51.038;7.216;2024-01-30T13:37:49;12.80;99.90
1129;DHT22;553;51.038;7.216;2024-01-30T13:40:16;12.80;99.90
1129;DHT22;553;51.038;7.216;2024-01-30T13:42:43;12.90;99.90
1129;DHT22;553;51.038;7.216;2024-01-30T13:45:11;12.90;99.90
1129;DHT22;553;51.038;7.216;2024-01-30T13:47:38;13.50;99.90
1129;DHT22;553;51.038;7.216;2024-01-30T13:50:05;13.30;99.90
1129;DHT22;553;51.038;7.216;2024-01-30T13:52:33;13.20;99.90
1129;DHT22;553;51.038;7.216;2024-01-30T13:55:11;13.10;99.90
1129;DHT22;553;51.038;7.216;2024-01-30T13:57:38;13.10;99.90
1129;DHT22;553;51.038;7.216;2024-01-30T14:00:05;12.90;99.90
1129;DHT22;553;51.038;7.216;2024-01-30T14:02:38;12.90;99.90
1129;DHT22;553;51.038;7.216;2024-01-30T14:05:05;12.90;99.90
1129;DHT22;553;51.038;7.216;2024-01-30T14:07:32;12.80;99.90
1129;DHT22;553;51.038;7.216;2024-01-30T14:10:00;12.70;99.90
1129;DHT22;553;51.038;7.216;2024-01-30T14:12:26;12.70;99.90
1129;DHT22;553;51.038;7.216;2024-01-30T14:14:53;12.70;99.90
1129;DHT22;553;51.038;7.216;2024-01-30T14:17:20;12.50;99.90
1129;DHT22;553;51.038;7.216;2024-01-30T14:19:47;12.40;99.90
1129;DHT22;553;51.038;7.216;2024-01-30T14:22:14;12.40;99.90
1129;DHT22;553;51.038;7.216;2024-01-30T14:24:41;12.50;99.90
1129;DHT22;553;51.038;7.216;2024-01-30T14:27:08;12.50;99.90
1129;DHT22;553;51.038;7.216;2024-01-30T14:29:36;12.40;99.90
1129;DHT22;553;51.038;7.216;2024-01-30T14:32:03;12.30;99.90
1129;DHT22;553;51.038;7.216;2024-01-30T14:34:30;12.40;99.90
1129;DHT22;553;51.038;7.216;2024-01-30T14:36:58;12.30;99.90
1129;DHT22;553;51.038;7.216;2024-01-30T14:39:24;12.20;99.90
1129;DHT22;553;51.038;7.216;2024-01-30T14:41:51;12.20;99.90
1129;DHT22;553;51.038;7.216;2024-01-30T14:44:18;12.20;99.90
1129;DHT22;553;51.038;7.216;2024-01-30T14:46:45;12.10;99.90
1129;DHT22;553;51.038;7.216;2024-01-30T14:49:11;12.20;99.90
1129;DHT22;553;51.038;7.216;2024-01-30T14:51:38;12.20;99.90
1129;DHT22;553;51.038;7.216;2024-01-30T14:54:05;12.20;99.90
1129;DHT22;553;51.038;7.216;2024-01-30T14:56:32;12.20;99.90
1129;DHT22;553;51.038;7.216;2024-01-30T14:59:00;12.20;99.90
1129;DHT22;553;51.038;7.216;2024-01-30T15:01:27;12.20;99.90
1129;DHT22;553;51.038;7.216;2024-01-30T15:03:54;12.20;99.90
1129;DHT22;553;51.038;7.216;2024-01-30T15:06:22;12.30;99.90
1129;DHT22;553;51.038;7.216;2024-01-30T15:08:51;12.20;99.90
1129;DHT22;553;51.038;7.216;2024-01-30T15:11:18;12.20;99.90
1129;DHT22;553;51.038;7.216;2024-01-30T15:13:45;12.20;99.90
1129;DHT22;553;51.038;7.216;2024-01-30T15:16:12;12.30;99.90
1129;DHT22;553;51.038;7.216;2024-01-30T15:18:39;12.30;99.90
1129;DHT22;553;51.038;7.216;2024-01-30T15:21:06;12.30;99.90
1129;DHT22;553;51.038;7.216;2024-01-30T15:23:33;12.30;99.90
1129;DHT22;553;51.038;7.216;2024-01-30T15:25:59;12.30;99.90
1129;DHT22;553;51.038;7.216;2024-01-30T15:28:36;12.20;99.90
1129;DHT22;553;51.038;7.216;2024-01-30T15:31:05;12.20;99.90
1129;DHT22;553;51.038;7.216;2024-01-30T15:33:33;12.20;99.90
1129;DHT22;553;51.038;7.216;2024-01-30T15:36:00;12.20;99.90
1129;DHT22;553;51.038;7.216;2024-01-30T15:38:27;12.20;99.90
1129;DHT22;553;51.038;7.216;2024-01-30T15:40:56;12.20;99.90
1129;DHT22;553;51.038;7.216;2024-01-30T15:43:23;12.30;99.90
1129;DHT22;553;51.038;7.216;2024-01-30T15:45:51;12.20;99.90
1129;DHT22;553;51.038;7.216;2024-01-30T15:48:19;12.20;99.90
1129;DHT22;553;51.038;7.216;2024-01-30T15:50:46;12.20;99.90
1129;DHT22;553;51.038;7.216;2024-01-30T15:53:13;12.30;99.90
1129;DHT22;553;51.038;7.216;2024-01-30T15:55:39;12.20;99.90
1129;DHT22;553;51.038;7.216;2024-01-30T15:58:07;12.30;99.90
1129;DHT22;553;51.038;7.216;2024-01-30T16:00:33;12.30;99.90
1129;DHT22;553;51.038;7.216;2024-01-30T16:03:00;12.30;99.90
1129;DHT22;553;51.038;7.216;2024-01-30T16:05:27;12.20;99.90
1129;DHT22;553;51.038;7.216;2024-01-30T16:07:54;12.20;99.90
1129;DHT22;553;51.038;7.216;2024-01-30T16:10:20;12.20;99.90
1129;DHT22;553;51.038;7.216;2024-01-30T16:12:47;12.10;99.90
1129;DHT22;553;51.038;7.216;2024-01-30T16:15:15;12.00;99.90
1129;DHT22;553;51.038;7.216;2024-01-30T16:17:42;12.00;99.90
1129;DHT22;553;51.038;7.216;2024-01-30T16:20:09;12.10;99.90
1129;DHT22;553;51.038;7.216;2024-01-30T16:22:36;12.10;99.90
1129;DHT22;553;51.038;7.216;2024-01-30T16:25:03;11.90;99.90
1129;DHT22;553;51.038;7.216;2024-01-30T16:27:31;11.80;99.90
1129;DHT22;553;51.038;7.216;2024-01-30T16:29:58;11.70;99.90